Time;durP1;ratioP1;P1;durP2;ratioP2;P2;SDS_P1;SDS_P2;PMS_P1;PMS_P2;Temp;Humidity;BMP_temperature;BMP_pressure;BME280_temperature;BME280_humidity;BME280_pressure;Samples;Min_cycle;Max_cycle;Signal;HPM_P1;HPM_P2
2023/01/16 00:02:06;;;;;;;258.87;85.67;;;4.70;99.90;;;;;;5029926;28;20243;-51
2023/01/16 00:04:35;;;;;;;1999.90;374.00;;;4.70;99.90;;;;;;5029189;28;20231;-51
2023/01/16 00:07:03;;;;;;;1692.27;312.90;;;4.70;99.90;;;;;;5029897;28;20294;-52
2023/01/16 00:09:31;;;;;;;1819.50;307.77;;;4.70;99.90;;;;;;5029443;28;20262;-51
2023/01/16 00:12:00;;;;;;;1417.53;246.30;;;4.60;99.90;;;;;;5028886;28;20242;-52
2023/01/16 00:14:30;;;;;;;254.37;85.23;;;4.60;99.90;;;;;;5029821;28;20256;-53
2023/01/16 00:16:58;;;;;;;1033.50;127.13;;;4.60;99.90;;;;;;5022971;28;20634;-51
2023/01/16 00:19:26;;;;;;;468.57;97.60;;;4.60;99.90;;;;;;5029063;28;20786;-53
2023/01/16 00:21:54;;;;;;;848.90;167.30;;;4.60;99.90;;;;;;5029697;28;20243;-52
2023/01/16 00:24:22;;;;;;;1706.80;255.57;;;4.70;99.90;;;;;;5029626;28;20260;-53
2023/01/16 00:26:51;;;;;;;851.80;143.67;;;4.60;99.90;;;;;;5029466;28;20744;-52
2023/01/16 00:29:21;;;;;;;1999.90;293.93;;;4.60;99.90;;;;;;5024213;28;20646;-52
2023/01/16 00:31:49;;;;;;;1247.80;215.57;;;4.60;99.90;;;;;;5029302;28;20254;-52
2023/01/16 00:34:17;;;;;;;1794.37;368.50;;;4.60;99.90;;;;;;5016497;28;20701;-51
2023/01/16 00:36:45;;;;;;;255.43;68.60;;;4.60;99.90;;;;;;5029185;28;20241;-52
2023/01/16 00:39:13;;;;;;;1207.30;229.67;;;4.60;99.90;;;;;;5029494;28;20265;-52
2023/01/16 00:41:41;;;;;;;1999.90;459.40;;;4.60;99.90;;;;;;5029029;28;20242;-53
2023/01/16 00:44:09;;;;;;;1999.90;418.23;;;4.50;99.90;;;;;;5029509;28;20663;-52
2023/01/16 00:46:38;;;;;;;1999.90;435.77;;;4.50;99.90;;;;;;5029234;28;20206;-51
2023/01/16 00:49:06;;;;;;;1999.90;422.00;;;4.50;99.90;;;;;;5029212;28;20320;-51
2023/01/16 00:51:34;;;;;;;1199.57;193.87;;;4.50;99.90;;;;;;5029224;28;20762;-51
2023/01/16 00:54:03;;;;;;;1291.43;225.03;;;4.50;99.90;;;;;;5028026;28;20295;-51
2023/01/16 00:56:31;;;;;;;1299.77;273.40;;;4.50;99.90;;;;;;5029368;28;20345;-52
2023/01/16 00:58:58;;;;;;;984.60;184.27;;;4.50;99.90;;;;;;5028965;28;20983;-52
2023/01/16 01:01:27;;;;;;;1999.90;314.97;;;4.50;99.90;;;;;;5025972;28;20252;-53
2023/01/16 01:03:58;;;;;;;1868.30;281.57;;;4.40;99.90;;;;;;5021084;28;20227;-52
2023/01/16 01:06:26;;;;;;;1999.90;359.43;;;4.40;99.90;;;;;;5024665;28;20234;-52
2023/01/16 01:08:54;;;;;;;1999.90;482.40;;;4.40;99.90;;;;;;5028669;28;20274;-52
2023/01/16 01:11:22;;;;;;;1999.90;426.37;;;4.40;99.90;;;;;;5016751;28;20279;-52
2023/01/16 01:13:50;;;;;;;1858.80;276.77;;;4.40;99.90;;;;;;5026935;28;20286;-52
2023/01/16 01:16:18;;;;;;;1009.00;252.27;;;4.40;99.90;;;;;;5025015;28;20759;-52
2023/01/16 01:18:46;;;;;;;1709.47;262.40;;;4.40;99.90;;;;;;5033121;28;20333;-51
2023/01/16 01:21:16;;;;;;;691.77;167.93;;;4.40;99.90;;;;;;5032956;28;20233;-51
2023/01/16 01:23:45;;;;;;;940.50;168.80;;;4.50;99.90;;;;;;5032061;28;20731;-52
2023/01/16 01:26:15;;;;;;;1844.47;245.23;;;4.50;99.90;;;;;;5032822;28;20215;-52
2023/01/16 01:28:44;;;;;;;1053.07;211.03;;;4.50;99.90;;;;;;5032427;28;20314;-52
2023/01/16 01:31:13;;;;;;;1802.73;303.00;;;4.50;99.90;;;;;;5025620;28;20317;-51
2023/01/16 01:33:42;;;;;;;1999.90;458.73;;;4.50;99.90;;;;;;5027910;28;20264;-52
2023/01/16 01:36:10;;;;;;;1999.90;493.33;;;4.50;99.90;;;;;;5026712;28;20264;-51
2023/01/16 01:38:42;;;;;;;1999.90;557.30;;;4.40;99.90;;;;;;5031691;28;20806;-51
2023/01/16 01:41:14;;;;;;;1999.90;504.40;;;4.40;99.90;;;;;;5032929;28;20225;-51
2023/01/16 01:43:48;;;;;;;758.43;143.17;;;4.40;99.90;;;;;;5032045;28;20317;-52
2023/01/16 01:46:23;;;;;;;1579.50;269.70;;;4.40;99.90;;;;;;5032552;28;20656;-52
2023/01/16 01:48:55;;;;;;;1136.23;232.73;;;4.40;99.90;;;;;;5032246;28;20261;-51
2023/01/16 01:51:28;;;;;;;1999.90;421.03;;;4.50;99.90;;;;;;5032543;28;20313;-51
2023/01/16 01:54:02;;;;;;;1943.53;359.57;;;4.50;99.90;;;;;;5031857;28;20738;-53
2023/01/16 01:56:37;;;;;;;1138.60;165.67;;;4.50;99.90;;;;;;5030559;28;20236;-51
2023/01/16 01:59:11;;;;;;;1885.37;330.80;;;4.40;99.90;;;;;;5032207;28;20261;-52
2023/01/16 02:01:40;;;;;;;1338.67;209.90;;;4.40;99.90;;;;;;5032414;28;20233;-51
2023/01/16 02:04:14;;;;;;;733.67;155.17;;;4.40;99.90;;;;;;5031692;28;20229;-52
2023/01/16 02:06:45;;;;;;;1316.57;176.17;;;4.50;99.90;;;;;;5032100;28;20751;-52
2023/01/16 02:09:16;;;;;;;1999.90;403.27;;;4.40;99.90;;;;;;5031522;28;20325;-52
2023/01/16 02:11:50;;;;;;;392.43;93.53;;;4.40;99.90;;;;;;5030593;28;20674;-52
2023/01/16 02:14:19;;;;;;;1999.90;487.43;;;4.50;99.90;;;;;;5030764;28;20232;-52
2023/01/16 02:19:48;;;;;;;1921.23;282.50;;;4.50;99.90;;;;;;5006058;28;20230;-51
2023/01/16 02:22:46;;;;;;;1999.90;481.77;;;4.50;99.90;;;;;;5024576;28;20680;-52
2023/01/16 02:25:44;;;;;;;1999.90;329.60;;;4.50;99.90;;;;;;5026967;28;20262;-52
2023/01/16 02:28:45;;;;;;;1991.30;310.83;;;4.50;99.90;;;;;;5029776;28;20253;-50
2023/01/16 02:31:28;;;;;;;580.90;126.30;;;4.50;99.90;;;;;;5030308;28;20252;-50
2023/01/16 02:34:11;;;;;;;1734.87;309.27;;;4.50;99.90;;;;;;5029393;28;20672;-52
2023/01/16 02:36:50;;;;;;;444.97;140.17;;;4.50;99.90;;;;;;5029986;28;20258;-52
2023/01/16 02:39:28;;;;;;;387.03;84.47;;;4.60;99.90;;;;;;5030097;28;20307;-52
2023/01/16 02:42:04;;;;;;;937.17;152.40;;;4.60;99.90;;;;;;5030147;28;20341;-51
2023/01/16 02:44:40;;;;;;;1999.90;540.53;;;4.60;99.90;;;;;;5017448;28;20263;-52
2023/01/16 02:47:17;;;;;;;213.83;70.20;;;4.60;99.90;;;;;;5016993;28;20245;-52
2023/01/16 02:49:51;;;;;;;778.43;142.20;;;4.60;99.90;;;;;;5030186;28;20229;-52
2023/01/16 02:52:25;;;;;;;1703.60;228.87;;;4.60;99.90;;;;;;5030309;28;20240;-52
2023/01/16 02:55:00;;;;;;;638.47;97.83;;;4.60;99.90;;;;;;5030038;28;20234;-51
2023/01/16 02:57:33;;;;;;;1630.67;270.50;;;4.60;99.90;;;;;;5030260;28;20219;-51
2023/01/16 03:00:03;;;;;;;1306.93;245.13;;;4.60;99.90;;;;;;5030024;28;20254;-51
2023/01/16 03:02:33;;;;;;;822.63;129.03;;;4.50;99.90;;;;;;5027504;28;20206;-51
2023/01/16 03:05:01;;;;;;;1304.43;183.00;;;4.50;99.90;;;;;;5029973;28;20265;-51
2023/01/16 03:08:05;;;;;;;1999.90;411.27;;;4.50;99.90;;;;;;5020737;28;20207;-52
2023/01/16 03:10:51;;;;;;;1999.90;407.50;;;4.40;99.90;;;;;;4989610;28;1095167;-52
2023/01/16 03:13:30;;;;;;;1999.90;454.47;;;4.50;99.90;;;;;;5020236;28;20651;-51
2023/01/16 03:16:05;;;;;;;1553.03;278.60;;;4.40;99.90;;;;;;5030825;28;20235;-51
2023/01/16 03:18:42;;;;;;;1738.40;306.43;;;4.50;99.90;;;;;;5031062;28;20645;-52
2023/01/16 03:21:13;;;;;;;1999.90;428.83;;;4.50;99.90;;;;;;5030091;28;20241;-51
2023/01/16 03:23:52;;;;;;;1741.47;258.83;;;4.40;99.90;;;;;;5030539;28;20745;-52
2023/01/16 03:26:28;;;;;;;1999.90;418.20;;;4.50;99.90;;;;;;5031090;28;20304;-52
2023/01/16 03:29:06;;;;;;;1999.90;442.87;;;4.40;99.90;;;;;;5020691;28;20647;-52
2023/01/16 03:31:40;;;;;;;1999.90;582.70;;;4.40;99.90;;;;;;5030656;28;20246;-51
2023/01/16 03:34:20;;;;;;;1999.90;340.43;;;4.40;99.90;;;;;;5028750;28;20238;-52
2023/01/16 03:36:52;;;;;;;1988.60;332.23;;;4.40;99.90;;;;;;5021147;28;20221;-51
2023/01/16 03:39:24;;;;;;;366.63;116.33;;;4.40;99.90;;;;;;5029817;28;20293;-51
2023/01/16 03:41:55;;;;;;;458.97;101.03;;;4.50;99.90;;;;;;5024374;28;20284;-51
2023/01/16 03:44:29;;;;;;;1896.37;373.20;;;4.50;99.90;;;;;;5026640;28;20227;-51
2023/01/16 03:47:00;;;;;;;1112.13;253.00;;;4.50;99.90;;;;;;5028252;28;20560;-52
2023/01/16 03:49:33;;;;;;;1999.90;406.20;;;4.50;99.90;;;;;;5030108;28;20283;-52
2023/01/16 03:52:05;;;;;;;1999.90;372.80;;;4.40;99.90;;;;;;5029990;28;20234;-50
2023/01/16 03:54:43;;;;;;;1999.90;444.10;;;4.40;99.90;;;;;;5030134;28;20203;-51
2023/01/16 03:57:14;;;;;;;1032.20;170.27;;;4.40;99.90;;;;;;5030033;28;20237;-51
2023/01/16 03:59:45;;;;;;;1999.90;272.50;;;4.30;99.90;;;;;;5030064;28;20253;-52
2023/01/16 04:02:17;;;;;;;576.57;136.77;;;4.30;99.90;;;;;;5029805;28;20234;-52
2023/01/16 04:04:51;;;;;;;1999.90;498.47;;;4.40;99.90;;;;;;5029794;28;20227;-52
2023/01/16 04:07:27;;;;;;;1672.77;308.10;;;4.30;99.90;;;;;;5029647;28;20245;-52
2023/01/16 04:09:58;;;;;;;1845.80;280.43;;;4.30;99.90;;;;;;5029371;28;20324;-52
2023/01/16 04:12:30;;;;;;;1999.90;621.87;;;4.40;99.90;;;;;;5029332;28;20209;-51
2023/01/16 04:15:01;;;;;;;1999.90;365.13;;;4.30;99.90;;;;;;5025146;28;20237;-52
2023/01/16 04:17:34;;;;;;;1999.90;429.13;;;4.30;99.90;;;;;;5029677;28;20232;-51
2023/01/16 04:20:06;;;;;;;1092.03;161.30;;;4.30;99.90;;;;;;5029595;28;20771;-51
2023/01/16 04:22:34;;;;;;;1999.90;561.03;;;4.40;99.90;;;;;;5023299;28;20206;-52
2023/01/16 04:25:06;;;;;;;1999.90;314.00;;;4.30;99.90;;;;;;5029410;28;20226;-52
2023/01/16 04:27:35;;;;;;;1951.10;260.77;;;4.30;99.90;;;;;;5028527;28;20320;-51
2023/01/16 04:30:07;;;;;;;1542.67;248.57;;;4.30;99.90;;;;;;5029684;28;20321;-53
2023/01/16 04:32:35;;;;;;;1991.03;345.20;;;4.30;99.90;;;;;;5028747;28;20245;-51
2023/01/16 04:35:04;;;;;;;1397.80;277.33;;;4.30;99.90;;;;;;5029235;28;20341;-52
2023/01/16 04:37:33;;;;;;;1435.07;205.27;;;4.30;99.90;;;;;;5029364;28;20244;-52
2023/01/16 04:40:01;;;;;;;841.53;161.93;;;4.40;99.90;;;;;;5029232;28;20258;-51
2023/01/16 04:42:29;;;;;;;688.53;161.63;;;4.40;99.90;;;;;;5028914;28;20664;-51
2023/01/16 04:44:57;;;;;;;1999.90;607.10;;;4.40;99.90;;;;;;5028873;28;20234;-52
2023/01/16 04:47:25;;;;;;;1999.90;364.33;;;4.40;99.90;;;;;;5029249;28;20624;-51
2023/01/16 04:49:53;;;;;;;1999.90;424.93;;;4.30;99.90;;;;;;5029164;28;20273;-51
2023/01/16 04:52:23;;;;;;;1999.90;391.17;;;4.30;99.90;;;;;;5024317;28;20737;-51
2023/01/16 04:54:51;;;;;;;1747.30;299.70;;;4.30;99.90;;;;;;5028688;28;20211;-53
2023/01/16 04:57:19;;;;;;;774.23;153.47;;;4.30;99.90;;;;;;5028997;28;20292;-51
2023/01/16 04:59:47;;;;;;;1999.90;381.07;;;4.30;99.90;;;;;;5028641;28;20799;-52
2023/01/16 05:02:15;;;;;;;1999.90;359.23;;;4.30;99.90;;;;;;5028903;28;20360;-51
2023/01/16 05:04:47;;;;;;;1999.90;520.43;;;4.30;99.90;;;;;;5029056;28;20675;-51
2023/01/16 05:07:15;;;;;;;1964.43;314.20;;;4.30;99.90;;;;;;5028947;28;20305;-51
2023/01/16 05:09:44;;;;;;;1043.13;168.80;;;4.40;99.90;;;;;;5021595;28;20273;-52
2023/01/16 05:12:12;;;;;;;1528.83;264.00;;;4.40;99.90;;;;;;5027940;28;20238;-51
2023/01/16 05:14:40;;;;;;;1999.90;442.57;;;4.30;99.90;;;;;;5029240;28;20242;-52
2023/01/16 05:17:08;;;;;;;1348.60;213.83;;;4.30;99.90;;;;;;5020822;28;20277;-51
2023/01/16 05:19:36;;;;;;;1999.90;423.23;;;4.30;99.90;;;;;;5029173;28;20260;-51
2023/01/16 05:22:04;;;;;;;1999.90;608.43;;;4.30;99.90;;;;;;5028814;28;20246;-51
2023/01/16 05:24:32;;;;;;;572.10;139.00;;;4.30;99.90;;;;;;5028882;28;20285;-52
2023/01/16 05:27:02;;;;;;;1999.90;397.20;;;4.30;99.90;;;;;;5028685;28;20241;-50
2023/01/16 05:29:30;;;;;;;1999.90;490.60;;;4.30;99.90;;;;;;5029131;28;20263;-51
2023/01/16 05:31:58;;;;;;;1984.90;419.60;;;4.20;99.90;;;;;;5028777;28;20214;-51
2023/01/16 05:34:26;;;;;;;1918.43;236.70;;;4.20;99.90;;;;;;5028739;28;20241;-52
2023/01/16 05:36:54;;;;;;;1999.90;472.40;;;4.20;99.90;;;;;;5027026;28;20240;-52
2023/01/16 05:39:22;;;;;;;1999.90;485.50;;;4.20;99.90;;;;;;5026672;28;20225;-51
2023/01/16 05:41:50;;;;;;;742.97;118.60;;;4.20;99.90;;;;;;5026640;28;20253;-53
2023/01/16 05:44:19;;;;;;;1999.90;415.73;;;4.20;99.90;;;;;;5028802;28;20304;-52
2023/01/16 05:46:47;;;;;;;1999.90;383.60;;;4.20;99.90;;;;;;5028680;28;20225;-51
2023/01/16 05:49:15;;;;;;;1008.17;122.53;;;4.20;99.90;;;;;;5028808;28;20230;-52
2023/01/16 05:51:43;;;;;;;1999.90;623.80;;;4.20;99.90;;;;;;5028306;28;20295;-52
2023/01/16 05:54:12;;;;;;;938.60;175.87;;;4.10;99.90;;;;;;5028702;28;20207;-51
2023/01/16 05:56:40;;;;;;;1999.90;491.20;;;4.20;99.90;;;;;;5028403;28;20303;-52
2023/01/16 05:59:10;;;;;;;1597.13;248.27;;;4.20;99.90;;;;;;5028632;28;20312;-52
2023/01/16 06:01:39;;;;;;;489.30;113.77;;;4.20;99.90;;;;;;5028552;28;20207;-51
2023/01/16 06:04:07;;;;;;;1261.93;220.83;;;4.20;99.90;;;;;;5031520;28;20296;-51
2023/01/16 06:06:36;;;;;;;1999.90;418.50;;;4.20;99.90;;;;;;5032122;28;20230;-51
2023/01/16 06:09:04;;;;;;;1999.90;672.47;;;4.30;99.90;;;;;;5032214;28;20317;-52
2023/01/16 06:11:32;;;;;;;1854.63;362.03;;;4.40;99.90;;;;;;5032239;28;20243;-52
2023/01/16 06:14:03;;;;;;;1999.90;345.27;;;4.30;99.90;;;;;;5031823;28;20237;-52
2023/01/16 06:16:31;;;;;;;1053.30;174.00;;;4.30;99.90;;;;;;5031543;28;20212;-52
2023/01/16 06:19:01;;;;;;;891.43;137.10;;;4.30;99.90;;;;;;5031197;28;20284;-52
2023/01/16 06:21:29;;;;;;;1999.90;419.80;;;4.30;99.90;;;;;;5032145;28;20245;-52
2023/01/16 06:23:57;;;;;;;695.13;170.23;;;4.30;99.90;;;;;;5023185;28;20249;-51
2023/01/16 06:26:25;;;;;;;1711.27;326.77;;;4.30;99.90;;;;;;5031752;28;20269;-51
2023/01/16 06:28:54;;;;;;;1503.87;228.90;;;4.30;99.90;;;;;;5031702;28;20303;-52
2023/01/16 06:31:22;;;;;;;1999.90;504.43;;;4.30;99.90;;;;;;5031658;28;20206;-52
2023/01/16 06:33:50;;;;;;;1999.90;561.13;;;4.30;99.90;;;;;;5031302;28;20253;-51
2023/01/16 06:36:19;;;;;;;1999.90;504.13;;;4.30;99.90;;;;;;5031936;28;20206;-51
2023/01/16 06:38:47;;;;;;;345.27;93.83;;;4.30;99.90;;;;;;5030819;28;20276;-51
2023/01/16 06:41:15;;;;;;;1292.97;318.47;;;4.30;99.90;;;;;;5020656;28;20211;-51
2023/01/16 06:43:43;;;;;;;1999.90;614.10;;;4.30;99.90;;;;;;5028741;28;20296;-51
2023/01/16 06:46:11;;;;;;;1040.87;185.37;;;4.30;99.90;;;;;;5025456;28;20220;-51
2023/01/16 06:48:41;;;;;;;887.27;228.10;;;4.30;99.90;;;;;;5030718;28;20713;-51
2023/01/16 06:51:10;;;;;;;1942.30;397.83;;;4.40;99.90;;;;;;5031289;28;20206;-51
2023/01/16 06:53:39;;;;;;;214.97;82.43;;;4.30;99.90;;;;;;5030807;28;20213;-52
2023/01/16 06:56:08;;;;;;;1999.90;405.27;;;4.30;99.90;;;;;;5030616;28;20257;-51
2023/01/16 06:58:36;;;;;;;1999.90;391.00;;;4.40;99.90;;;;;;5029399;28;20746;-51
2023/01/16 07:01:04;;;;;;;367.73;119.57;;;4.30;99.90;;;;;;5030952;28;20242;-51
2023/01/16 07:03:32;;;;;;;581.53;157.47;;;4.30;99.90;;;;;;5030647;28;20256;-51
2023/01/16 07:06:00;;;;;;;1706.80;405.10;;;4.30;99.90;;;;;;5031125;28;20210;-52
2023/01/16 07:08:29;;;;;;;1027.80;220.23;;;4.30;99.90;;;;;;5030767;28;20323;-51
2023/01/16 07:11:01;;;;;;;1999.90;415.40;;;4.40;99.90;;;;;;5019384;28;20241;-51
2023/01/16 07:13:29;;;;;;;1999.90;427.07;;;4.40;99.90;;;;;;5030267;28;20648;-51
2023/01/16 07:24:19;;;;;;;1999.90;430.03;;;4.50;99.90;;;;;;5030429;28;20221;-51
2023/01/16 07:26:51;;;;;;;1999.90;362.20;;;4.50;99.90;;;;;;5030744;28;20845;-52
2023/01/16 07:29:20;;;;;;;407.27;113.00;;;4.50;99.90;;;;;;5030116;28;20773;-52
2023/01/16 07:31:48;;;;;;;1999.90;507.93;;;4.50;99.90;;;;;;5030212;28;20245;-52
2023/01/16 07:34:16;;;;;;;1999.90;418.83;;;4.50;99.90;;;;;;5030065;28;20734;-51
2023/01/16 07:36:44;;;;;;;325.30;60.53;;;4.50;99.90;;;;;;5030057;28;20659;-52
2023/01/16 07:39:12;;;;;;;720.77;193.83;;;4.50;99.90;;;;;;5029884;28;20234;-52
2023/01/16 07:41:40;;;;;;;1999.90;454.33;;;4.50;99.90;;;;;;5030365;28;20234;-52
2023/01/16 07:44:24;;;;;;;764.60;169.73;;;4.50;99.90;;;;;;5030523;28;20238;-52
2023/01/16 07:46:52;;;;;;;1999.90;392.83;;;4.50;99.90;;;;;;5029481;28;20268;-51
2023/01/16 07:49:20;;;;;;;603.50;155.43;;;4.50;99.90;;;;;;5030466;28;20263;-51
2023/01/16 07:51:48;;;;;;;832.43;161.90;;;4.50;99.90;;;;;;5030316;28;20293;-51
2023/01/16 07:54:16;;;;;;;1999.90;522.97;;;4.60;99.90;;;;;;5030480;28;20245;-51
2023/01/16 07:56:44;;;;;;;1633.23;382.60;;;4.60;99.90;;;;;;5030249;28;20261;-50
2023/01/16 07:59:12;;;;;;;1782.87;387.70;;;4.60;99.90;;;;;;5030022;28;20226;-51
2023/01/16 08:01:42;;;;;;;1999.90;706.30;;;4.60;99.90;;;;;;5029680;28;20253;-52
2023/01/16 08:04:10;;;;;;;1956.53;327.43;;;4.50;99.90;;;;;;5030019;28;20294;-52
2023/01/16 08:06:42;;;;;;;1210.03;322.60;;;4.60;99.90;;;;;;5029969;28;20252;-51
2023/01/16 08:09:10;;;;;;;1931.03;380.67;;;4.60;99.90;;;;;;5026046;28;20755;-52
2023/01/16 08:11:39;;;;;;;1286.60;330.63;;;4.60;99.90;;;;;;5029299;28;20293;-51
2023/01/16 08:14:08;;;;;;;1999.90;746.17;;;4.60;99.90;;;;;;5015833;28;20313;-52
2023/01/16 08:16:36;;;;;;;392.63;154.40;;;4.60;99.90;;;;;;5028957;28;20660;-51
2023/01/16 08:19:05;;;;;;;1999.90;564.83;;;4.70;99.90;;;;;;5029497;28;20638;-51
2023/01/16 08:21:33;;;;;;;1999.90;495.47;;;4.60;99.90;;;;;;5029560;28;20246;-51
2023/01/16 08:24:01;;;;;;;1110.07;253.70;;;4.70;99.90;;;;;;5025260;28;20235;-52
2023/01/16 08:26:30;;;;;;;1999.90;639.83;;;4.70;99.90;;;;;;5019353;28;20306;-51
2023/01/16 08:28:59;;;;;;;1999.90;549.37;;;4.70;99.90;;;;;;5029113;28;20321;-51
2023/01/16 08:31:27;;;;;;;1422.50;305.60;;;4.80;99.90;;;;;;5029764;28;20242;-52
2023/01/16 08:33:55;;;;;;;909.00;228.73;;;4.80;99.90;;;;;;5028974;28;20210;-52
2023/01/16 08:36:25;;;;;;;1813.03;366.50;;;4.90;99.90;;;;;;5027639;28;20198;-51
2023/01/16 08:38:53;;;;;;;1999.90;474.73;;;4.90;99.90;;;;;;5023283;28;20257;-50
2023/01/16 08:52:33;;;;;;;1509.50;399.00;;;5.00;99.90;;;;;;5029263;28;20392;-50
2023/01/16 08:55:01;;;;;;;1999.90;446.70;;;5.20;99.90;;;;;;5029129;28;20241;-52
2023/01/16 08:57:29;;;;;;;385.07;124.73;;;5.20;99.90;;;;;;5029186;28;20283;-51
2023/01/16 08:59:58;;;;;;;1999.90;673.97;;;5.20;99.90;;;;;;5028968;28;20257;-51
2023/01/16 09:02:27;;;;;;;1820.80;427.93;;;5.30;99.90;;;;;;5028759;28;20286;-52
2023/01/16 09:04:55;;;;;;;1999.90;811.63;;;5.20;99.90;;;;;;5029069;28;20264;-51
2023/01/16 09:07:24;;;;;;;1730.07;407.17;;;5.30;99.90;;;;;;5029106;28;20231;-51
2023/01/16 09:09:53;;;;;;;1999.90;527.50;;;5.30;99.90;;;;;;5028830;28;20285;-50
2023/01/16 09:15:08;;;;;;;1570.87;356.53;;;5.30;99.90;;;;;;5028841;28;20261;-52
2023/01/16 09:17:36;;;;;;;761.00;203.30;;;5.40;99.90;;;;;;5029157;28;20288;-51
2023/01/16 09:20:05;;;;;;;244.40;96.00;;;5.30;99.90;;;;;;5028699;28;20249;-52
2023/01/16 09:22:33;;;;;;;1789.43;357.50;;;5.30;99.90;;;;;;5028609;28;20212;-52
2023/01/16 09:25:03;;;;;;;1999.90;559.20;;;5.30;99.90;;;;;;5023237;28;20260;-51
2023/01/16 09:27:31;;;;;;;1719.03;444.17;;;5.40;99.90;;;;;;5025568;28;20203;-52
2023/01/16 09:29:59;;;;;;;1837.50;408.30;;;5.20;99.90;;;;;;5028383;28;20659;-53
2023/01/16 09:32:28;;;;;;;1576.80;372.63;;;5.20;99.90;;;;;;5028106;28;20205;-52
2023/01/16 09:34:56;;;;;;;1999.90;424.30;;;5.30;99.90;;;;;;5025730;28;20217;-52
2023/01/16 09:37:24;;;;;;;1999.90;576.93;;;5.20;99.90;;;;;;5024480;28;20241;-51
2023/01/16 09:39:52;;;;;;;1999.90;676.00;;;5.10;99.90;;;;;;5031569;28;20230;-51
2023/01/16 09:45:32;;;;;;;1999.90;482.30;;;5.10;99.90;;;;;;5039190;28;20205;-52
2023/01/16 09:48:04;;;;;;;1999.90;621.87;;;5.10;99.90;;;;;;5037141;28;20231;-52
2023/01/16 09:50:38;;;;;;;751.97;232.93;;;5.10;99.90;;;;;;5032466;28;20208;-52
2023/01/16 09:58:56;;;;;;;1379.57;319.73;;;5.10;99.90;;;;;;5032299;28;20309;-51
2023/01/16 10:01:29;;;;;;;1966.70;398.23;;;5.00;99.90;;;;;;5032559;28;20238;-52
2023/01/16 10:04:11;;;;;;;1520.57;325.30;;;5.00;99.90;;;;;;5030735;28;20214;-52
2023/01/16 10:06:46;;;;;;;250.67;120.50;;;5.00;99.90;;;;;;5027046;28;20942;-52
2023/01/16 10:09:26;;;;;;;1999.90;534.17;;;5.00;99.90;;;;;;5031794;28;20675;-53
2023/01/16 10:11:58;;;;;;;1999.90;718.13;;;4.90;99.90;;;;;;5031651;28;20267;-52
2023/01/16 10:14:39;;;;;;;1328.47;313.80;;;5.00;99.90;;;;;;5031676;28;20243;-52
2023/01/16 10:17:20;;;;;;;1999.90;693.03;;;4.90;99.90;;;;;;5031988;28;20635;-52
2023/01/16 10:20:23;;;;;;;1999.90;579.93;;;4.70;99.90;;;;;;5023286;28;20273;-52
2023/01/16 10:23:00;;;;;;;933.27;230.83;;;4.60;99.90;;;;;;5023799;28;20225;-52
2023/01/16 10:25:32;;;;;;;1243.33;237.53;;;4.60;99.90;;;;;;5028334;28;20233;-51
2023/01/16 10:28:13;;;;;;;1999.90;479.10;;;4.60;99.90;;;;;;5031742;28;20217;-52
2023/01/16 10:30:48;;;;;;;747.43;151.73;;;4.60;99.90;;;;;;5028583;28;20745;-51
2023/01/16 10:33:25;;;;;;;1871.97;353.40;;;4.60;99.90;;;;;;5031485;28;20198;-53
2023/01/16 10:35:55;;;;;;;237.77;89.77;;;4.60;99.90;;;;;;5032027;28;20234;-51
2023/01/16 10:38:37;;;;;;;1144.70;233.30;;;4.60;99.90;;;;;;5030902;28;20280;-51
2023/01/16 10:49:25;;;;;;;887.10;237.23;;;4.60;99.90;;;;;;5031420;28;20245;-51
2023/01/16 10:49:32;;;;;;;1999.90;707.10;;;4.70;99.90;;;;;;5030607;28;20261;-51
2023/01/16 10:52:04;;;;;;;1999.90;481.30;;;4.60;99.90;;;;;;5030964;28;20384;-52
2023/01/16 10:54:32;;;;;;;1999.90;838.23;;;4.70;99.90;;;;;;5026010;28;20238;-51
2023/01/16 10:57:03;;;;;;;1999.90;625.47;;;4.60;99.90;;;;;;5030233;28;20242;-52
2023/01/16 10:59:32;;;;;;;1999.90;871.20;;;4.60;99.90;;;;;;5031135;28;20233;-51
2023/01/16 11:02:13;;;;;;;1999.90;709.43;;;4.50;99.90;;;;;;5030471;28;20747;-51
2023/01/16 11:04:41;;;;;;;1999.90;723.90;;;4.60;99.90;;;;;;5031256;28;20233;-52
2023/01/16 11:07:18;;;;;;;1999.90;429.97;;;4.60;99.90;;;;;;5029459;28;20240;-51
2023/01/16 11:09:47;;;;;;;1999.90;403.77;;;4.60;99.90;;;;;;5030479;28;20929;-52
2023/01/16 11:20:51;;;;;;;950.33;225.13;;;4.60;99.90;;;;;;5030839;28;20268;-52
2023/01/16 11:23:21;;;;;;;1999.90;517.70;;;4.70;99.90;;;;;;5029902;28;20789;-51
2023/01/16 11:25:51;;;;;;;1999.90;865.13;;;4.60;99.90;;;;;;5030568;28;20637;-51
2023/01/16 11:28:22;;;;;;;1999.90;785.77;;;4.50;99.90;;;;;;5022422;28;20202;-50
2023/01/16 11:30:54;;;;;;;1999.90;799.97;;;4.30;99.90;;;;;;5028169;28;20265;-51
2023/01/16 11:33:27;;;;;;;1999.90;652.43;;;4.30;99.90;;;;;;5030154;28;20239;-51
2023/01/16 11:35:58;;;;;;;1999.90;623.67;;;4.30;99.90;;;;;;5028378;28;20271;-51
2023/01/16 11:38:34;;;;;;;1999.90;464.17;;;4.20;99.90;;;;;;5014494;28;20650;-51
2023/01/16 11:41:04;;;;;;;1994.93;430.73;;;4.20;99.90;;;;;;5027716;28;20313;-51
2023/01/16 11:46:31;;;;;;;1788.60;354.87;;;4.20;99.90;;;;;;5030116;28;20297;-51
2023/01/16 11:49:03;;;;;;;832.97;179.73;;;4.30;99.90;;;;;;5029984;28;20253;-51
2023/01/16 11:51:33;;;;;;;1853.77;393.27;;;4.30;99.90;;;;;;5029969;28;20218;-52
2023/01/16 11:54:04;;;;;;;413.50;113.90;;;4.30;99.90;;;;;;5029389;28;20242;-50
2023/01/16 11:56:52;;;;;;;1046.40;180.63;;;4.30;99.90;;;;;;5029639;28;20212;-51
2023/01/16 11:59:41;;;;;;;1093.40;231.83;;;4.30;99.90;;;;;;5029035;28;20218;-51
2023/01/16 12:02:42;;;;;;;1999.90;421.47;;;4.20;99.90;;;;;;5029121;28;20683;-51
2023/01/16 12:08:21;;;;;;;496.07;101.80;;;4.10;99.90;;;;;;5029547;28;20749;-51
2023/01/16 12:10:58;;;;;;;1011.77;279.77;;;4.10;99.90;;;;;;5029909;28;20329;-51
2023/01/16 12:16:30;;;;;;;1116.70;169.03;;;4.20;99.90;;;;;;5030331;28;20293;-51
2023/01/16 12:19:10;;;;;;;1999.90;423.93;;;4.20;99.90;;;;;;5028346;28;20221;-51
2023/01/16 12:21:49;;;;;;;1358.83;260.13;;;4.20;99.90;;;;;;5028657;28;20568;-50
2023/01/16 12:24:36;;;;;;;1999.90;393.67;;;4.20;99.90;;;;;;5029482;28;20299;-51
2023/01/16 12:27:18;;;;;;;1369.53;254.07;;;4.10;99.90;;;;;;5025740;28;20217;-51
2023/01/16 12:29:57;;;;;;;795.60;175.93;;;4.20;99.90;;;;;;5027501;28;20263;-51
2023/01/16 12:32:41;;;;;;;1816.53;287.10;;;4.20;99.90;;;;;;5029133;28;20205;-51
2023/01/16 12:35:34;;;;;;;1999.90;699.70;;;4.20;99.90;;;;;;5029361;28;20288;-51
2023/01/16 12:38:12;;;;;;;1999.90;438.97;;;4.10;99.90;;;;;;5016252;28;20683;-51
2023/01/16 12:43:17;;;;;;;1999.90;547.23;;;4.10;99.90;;;;;;5029388;28;20579;-51
2023/01/16 12:43:58;;;;;;;1632.10;291.17;;;4.10;99.90;;;;;;5029321;28;20681;-51
2023/01/16 12:46:35;;;;;;;1999.90;406.37;;;4.00;99.90;;;;;;5029225;28;20720;-51
2023/01/16 12:49:20;;;;;;;1277.93;231.17;;;4.10;99.90;;;;;;5029107;28;20273;-52
2023/01/16 12:51:58;;;;;;;1210.93;205.97;;;4.10;99.90;;;;;;5029017;28;20296;-51
2023/01/16 12:54:50;;;;;;;790.17;139.87;;;4.10;99.90;;;;;;5029307;28;20301;-51
2023/01/16 12:57:48;;;;;;;1999.90;511.30;;;4.10;99.90;;;;;;5016964;28;20642;-51
2023/01/16 13:00:21;;;;;;;1999.90;613.97;;;4.00;99.90;;;;;;5024067;28;20331;-51
2023/01/16 13:02:55;;;;;;;1602.07;246.53;;;4.10;99.90;;;;;;5028799;28;20244;-51
2023/01/16 13:05:27;;;;;;;189.10;76.60;;;4.10;99.90;;;;;;5016228;28;20201;-50
2023/01/16 13:08:01;;;;;;;1999.90;399.60;;;4.20;99.90;;;;;;5028844;28;20621;-52
2023/01/16 13:13:25;;;;;;;1959.77;346.07;;;4.10;99.90;;;;;;5032524;28;20206;-51
2023/01/16 13:16:02;;;;;;;1728.50;298.30;;;4.10;99.90;;;;;;5020195;28;20255;-51
2023/01/16 13:18:37;;;;;;;1088.60;228.07;;;4.20;99.90;;;;;;5029498;28;20337;-51
2023/01/16 13:21:10;;;;;;;1130.30;240.23;;;4.20;99.90;;;;;;5032821;28;20214;-51
2023/01/16 13:23:43;;;;;;;1404.23;315.60;;;4.30;99.90;;;;;;5032685;28;20206;-52
2023/01/16 13:26:17;;;;;;;1434.40;245.07;;;4.30;99.90;;;;;;5032930;28;20238;-52
2023/01/16 13:28:52;;;;;;;1624.87;245.67;;;4.30;99.90;;;;;;5032666;28;20602;-52
2023/01/16 13:31:28;;;;;;;1999.90;614.77;;;4.20;99.90;;;;;;5021665;28;20318;-51
2023/01/16 13:34:00;;;;;;;1999.90;460.33;;;4.30;99.90;;;;;;5026586;28;20804;-51
2023/01/16 13:36:56;;;;;;;1999.90;541.20;;;4.20;99.90;;;;;;5031907;28;20234;-52